createdAt,value
2023-01-18T08:50:53.368Z,7.96
2023-01-18T08:51:58.771Z,7.98
2023-01-18T08:53:02.384Z,8.00
2023-01-18T08:54:10.318Z,8.06
2023-01-18T08:55:14.616Z,8.12
2023-01-18T08:56:19.064Z,8.20
2023-01-18T08:57:22.367Z,8.15
2023-01-18T08:58:25.873Z,8.12
2023-01-18T08:59:28.136Z,8.20
2023-01-18T09:00:32.671Z,8.26
2023-01-18T09:01:36.419Z,8.30
2023-01-18T09:02:39.744Z,8.43
2023-01-18T09:03:43.291Z,8.42
2023-01-18T09:04:47.310Z,8.40
2023-01-18T09:05:52.381Z,8.42
2023-01-18T09:06:54.642Z,8.35
2023-01-18T09:07:58.167Z,8.30
2023-01-18T09:09:02.060Z,8.28
2023-01-18T09:10:08.298Z,8.38
2023-01-18T09:11:12.530Z,8.32
2023-01-18T09:12:15.918Z,8.35
2023-01-18T09:13:20.975Z,8.35
2023-01-18T09:14:25.586Z,8.39
2023-01-18T09:15:30.509Z,8.38
2023-01-18T09:16:35.068Z,8.45
2023-01-18T09:17:38.578Z,8.39
2023-01-18T09:18:44.061Z,8.42
2023-01-18T09:19:50.919Z,8.45
2023-01-18T09:20:55.039Z,8.41
2023-01-18T09:21:58.545Z,8.48
2023-01-18T09:23:03.100Z,8.56
2023-01-18T09:24:07.255Z,8.61
2023-01-18T09:25:11.944Z,8.56
2023-01-18T09:26:20.588Z,8.65
2023-01-18T09:27:24.148Z,8.56
2023-01-18T09:28:28.137Z,8.41
2023-01-18T09:29:32.031Z,8.35
2023-01-18T09:30:35.292Z,8.32
2023-01-18T09:31:38.107Z,8.35
2023-01-18T09:32:42.450Z,8.42
2023-01-18T09:33:53.312Z,8.48
2023-01-18T09:34:54.286Z,8.33
2023-01-18T09:35:57.793Z,8.38
2023-01-18T09:37:11.857Z,8.43
2023-01-18T09:38:17.533Z,8.44
2023-01-18T09:39:21.377Z,8.43
2023-01-18T09:40:26.633Z,8.47
2023-01-18T09:41:34.422Z,8.49
2023-01-18T09:42:39.833Z,8.45
2023-01-18T09:43:47.835Z,8.51
2023-01-18T09:44:54.659Z,8.55
2023-01-18T09:45:58.061Z,8.64
2023-01-18T09:47:15.027Z,8.70
2023-01-18T09:48:36.222Z,8.62
2023-01-18T09:49:56.747Z,8.61
2023-01-18T09:51:01.892Z,8.79
2023-01-18T09:52:25.586Z,8.78
2023-01-18T09:53:41.887Z,8.81
2023-01-18T09:54:48.090Z,8.65
2023-01-18T09:56:04.608Z,8.70
2023-01-18T09:57:12.616Z,8.85
2023-01-18T09:58:19.651Z,8.81
2023-01-18T09:59:33.340Z,8.90
2023-01-18T10:00:39.627Z,8.99
2023-01-18T10:01:42.807Z,8.79
2023-01-18T10:02:47.941Z,8.78
2023-01-18T10:03:53.273Z,8.77
2023-01-18T10:05:01.257Z,8.76
2023-01-18T10:06:11.641Z,8.81
2023-01-18T10:07:26.818Z,8.77
2023-01-18T10:08:30.036Z,9.02
2023-01-18T10:09:38.684Z,8.89
2023-01-18T10:10:44.577Z,8.87
2023-01-18T10:12:05.964Z,8.93
2023-01-18T10:13:26.578Z,9.00
2023-01-18T10:14:36.766Z,8.95
2023-01-18T14:03:07.780Z,10.94
2023-01-18T14:04:30.416Z,10.98
2023-01-18T14:05:41.311Z,10.91
2023-01-18T14:06:45.770Z,10.95
2023-01-18T14:07:52.200Z,10.91
2023-01-18T14:08:57.597Z,10.92
2023-01-18T14:10:02.564Z,10.88
2023-01-18T14:11:12.733Z,10.97
2023-01-18T14:12:16.981Z,11.10
2023-01-18T14:13:22.463Z,11.01
2023-01-18T14:14:27.953Z,10.96
2023-01-18T14:15:34.811Z,10.90
2023-01-18T14:16:40.292Z,10.90
2023-01-18T14:17:57.764Z,10.87
2023-01-18T14:18:51.182Z,10.81
2023-01-18T14:20:03.645Z,10.83
2023-01-18T14:22:37.087Z,10.87
2023-01-18T14:23:44.199Z,10.88
2023-01-18T14:24:50.668Z,10.87
2023-01-18T14:25:59.833Z,10.86
2023-01-18T14:27:04.270Z,10.87
2023-01-18T14:28:15.190Z,10.89
2023-01-18T14:29:20.296Z,10.89
2023-01-18T14:30:25.331Z,10.86
2023-01-18T14:31:30.649Z,10.87
2023-01-18T14:32:41.599Z,10.92
2023-01-18T14:33:44.880Z,10.82
2023-01-18T14:35:00.686Z,10.85
2023-01-18T14:36:07.751Z,10.80
2023-01-18T14:37:30.662Z,10.90
2023-01-18T14:38:34.245Z,10.79
2023-01-18T14:39:38.313Z,10.87
2023-01-18T14:40:45.643Z,10.89
2023-01-18T14:41:51.989Z,10.89
2023-01-18T14:42:56.328Z,10.86
2023-01-18T14:43:59.826Z,10.97
2023-01-18T14:45:04.053Z,10.84
2023-01-18T14:46:09.579Z,10.73
2023-01-18T14:47:23.859Z,10.69
2023-01-18T14:48:23.596Z,10.83
2023-01-18T14:49:28.212Z,10.76
2023-01-18T14:50:33.721Z,10.84
2023-01-18T14:51:40.289Z,10.78
2023-01-18T14:52:43.631Z,10.83
2023-01-18T14:53:48.209Z,10.85
2023-01-18T14:54:53.051Z,10.90
2023-01-18T14:56:07.422Z,10.78
2023-01-18T14:57:14.576Z,10.86
2023-01-18T14:58:18.590Z,10.79
2023-01-18T14:59:23.941Z,10.72
2023-01-18T15:00:27.689Z,10.74
2023-01-18T15:01:36.070Z,10.80
2023-01-18T15:02:39.798Z,10.82
2023-01-18T15:03:42.192Z,10.80
2023-01-18T15:04:50.400Z,10.80
2023-01-18T15:05:55.459Z,10.82
2023-01-18T15:07:05.053Z,10.77
2023-01-18T15:08:09.147Z,10.78
2023-01-18T15:09:14.254Z,10.74
2023-01-18T15:10:18.784Z,10.72
2023-01-18T15:11:24.969Z,10.80
2023-01-18T15:12:29.922Z,10.77
2023-01-18T15:13:36.319Z,10.83
2023-01-18T15:14:41.800Z,10.81
2023-01-18T15:15:46.226Z,10.80
2023-01-18T15:16:51.614Z,10.88
2023-01-18T15:18:00.772Z,10.99
2023-01-18T15:19:03.843Z,10.88
2023-01-18T15:20:09.145Z,10.95
2023-01-18T15:21:14.185Z,10.89
2023-01-18T15:22:17.185Z,10.90
2023-01-18T15:23:20.473Z,10.76
2023-01-18T15:24:24.523Z,10.79
2023-01-18T15:25:29.354Z,10.77
2023-01-18T15:26:43.537Z,10.74
2023-01-18T15:27:51.522Z,10.85
2023-01-18T15:28:55.654Z,10.83
2023-01-18T15:30:00.456Z,10.85
2023-01-18T15:31:10.419Z,10.81
2023-01-18T15:32:21.008Z,10.74
2023-01-18T15:33:25.757Z,10.82
2023-01-18T15:34:36.712Z,10.95
2023-01-18T15:35:40.288Z,11.06
2023-01-18T15:36:44.211Z,11.02
2023-01-18T15:37:47.366Z,10.93
2023-01-18T15:38:50.509Z,10.91
2023-01-18T15:39:59.311Z,10.80
2023-01-18T15:41:11.063Z,10.81
2023-01-18T15:42:16.282Z,10.84
2023-01-18T15:43:24.567Z,10.84
2023-01-18T15:44:37.688Z,10.81
2023-01-18T15:45:43.091Z,10.92
2023-01-18T15:46:47.717Z,10.89
2023-01-18T15:47:56.160Z,10.96
2023-01-18T15:48:59.347Z,11.02
2023-01-18T15:50:03.696Z,10.95
2023-01-18T15:51:08.540Z,10.97
2023-01-18T15:52:12.026Z,10.95
2023-01-18T15:53:32.147Z,10.97
2023-01-18T15:54:35.753Z,11.09
2023-01-18T15:55:39.871Z,11.11
2023-01-18T15:56:46.090Z,11.19
2023-01-18T15:57:54.824Z,11.21
2023-01-18T15:59:02.610Z,11.21
2023-01-18T16:00:05.496Z,11.10
2023-01-18T16:01:16.658Z,10.98
2023-01-18T16:02:20.952Z,10.91
2023-01-18T16:03:26.245Z,10.95
2023-01-18T16:04:30.274Z,11.04
2023-01-18T16:05:35.451Z,11.10
2023-01-18T16:06:40.940Z,11.05
2023-01-18T16:07:45.270Z,11.04
2023-01-18T16:08:58.906Z,11.04
2023-01-18T16:10:09.120Z,11.04
2023-01-18T16:11:14.501Z,11.07
2023-01-18T16:12:19.130Z,11.06
2023-01-18T16:13:33.802Z,11.00
2023-01-18T16:14:39.810Z,10.98
2023-01-18T16:15:44.273Z,11.09
2023-01-18T16:16:48.202Z,11.08
2023-01-18T16:17:53.059Z,11.00
2023-01-18T16:19:09.169Z,10.93
2023-01-18T16:20:15.540Z,10.84
2023-01-18T16:21:25.591Z,10.83
2023-01-18T16:22:30.271Z,10.70
2023-01-18T16:23:32.733Z,10.68
2023-01-18T16:24:36.982Z,10.64
2023-01-18T16:25:41.517Z,10.68
2023-01-18T16:26:44.610Z,10.73
2023-01-18T16:27:52.923Z,10.69
2023-01-18T16:29:09.147Z,10.69
2023-01-18T16:30:16.841Z,10.62
2023-01-18T16:31:23.488Z,10.64
2023-01-18T16:32:31.765Z,10.66
2023-01-18T16:33:35.616Z,10.60
2023-01-18T16:34:37.962Z,10.73
2023-01-18T16:35:43.612Z,10.79
2023-01-18T16:36:47.300Z,10.83
2023-01-18T16:37:51.988Z,10.83
2023-01-18T16:38:55.654Z,10.78
2023-01-18T16:39:59.061Z,10.73
2023-01-18T16:41:02.543Z,10.79
2023-01-18T16:42:06.915Z,10.82
2023-01-18T16:43:15.540Z,10.78
2023-01-18T16:44:20.593Z,10.72
2023-01-18T16:45:24.302Z,10.76
2023-01-18T16:46:29.055Z,10.77
2023-01-18T16:47:32.595Z,10.70
2023-01-18T16:48:38.881Z,10.68
2023-01-18T16:49:45.612Z,10.74
2023-01-18T16:50:49.859Z,10.76
2023-01-18T16:51:53.549Z,10.79
2023-01-18T16:52:56.768Z,10.80
2023-01-18T16:54:00.483Z,10.68
2023-01-18T16:55:03.695Z,10.70
2023-01-18T16:56:10.561Z,10.76
2023-01-18T16:57:15.080Z,10.61
2023-01-18T16:58:21.765Z,10.61
2023-01-18T16:59:25.431Z,10.76
2023-01-18T17:00:39.205Z,10.75
2023-01-18T17:01:42.625Z,10.66
2023-01-18T17:02:46.809Z,10.70
2023-01-18T17:03:51.792Z,10.65
2023-01-18T17:04:55.177Z,10.68
2023-01-18T17:05:59.104Z,10.74
2023-01-18T17:07:03.258Z,10.76
2023-01-18T17:08:06.839Z,10.71
2023-01-18T17:09:22.566Z,10.63
2023-01-18T17:10:30.893Z,10.62
2023-01-18T17:11:34.275Z,10.58
2023-01-18T17:12:37.795Z,10.60
2023-01-18T17:13:41.316Z,10.57
2023-01-18T17:14:44.685Z,10.58
2023-01-18T17:15:48.016Z,10.53
2023-01-18T17:16:50.593Z,10.59
2023-01-18T17:17:56.769Z,10.66
2023-01-18T17:19:01.420Z,10.56
2023-01-18T17:20:05.571Z,10.55
2023-01-18T17:21:11.927Z,10.51
2023-01-18T17:22:15.496Z,10.51
2023-01-18T17:23:19.102Z,10.54
2023-01-18T17:24:25.416Z,10.51
2023-01-18T17:25:30.275Z,10.54
2023-01-18T17:26:35.487Z,10.60
2023-01-18T17:27:39.175Z,10.51
2023-01-18T17:28:43.728Z,10.46
2023-01-18T17:29:48.171Z,10.42
2023-01-18T17:30:53.265Z,10.35
2023-01-18T17:31:56.751Z,10.43
2023-01-18T17:33:00.880Z,10.53
2023-01-18T17:34:07.965Z,10.53
2023-01-18T17:35:11.444Z,10.63
2023-01-18T17:36:14.725Z,10.57
2023-01-18T17:37:18.020Z,10.53
2023-01-18T17:38:24.594Z,10.56
2023-01-18T17:39:37.328Z,10.57
2023-01-18T17:40:40.151Z,10.52
2023-01-18T17:41:38.427Z,10.54
2023-01-18T17:42:41.293Z,10.46
2023-01-18T17:43:44.493Z,10.39
2023-01-18T17:44:47.601Z,10.38
2023-01-18T17:45:59.846Z,10.45
2023-01-18T17:46:55.258Z,10.52
2023-01-18T17:47:58.721Z,10.38
2023-01-18T17:49:04.624Z,10.44
2023-01-18T17:50:11.736Z,10.38
2023-01-18T17:51:16.341Z,10.37
2023-01-18T17:52:18.686Z,10.49
2023-01-18T17:53:23.048Z,10.34
2023-01-18T17:54:26.644Z,10.46
2023-01-18T17:55:34.700Z,10.45
2023-01-18T17:56:34.066Z,10.45
2023-01-18T17:57:37.382Z,10.42
2023-01-18T17:58:54.863Z,10.35
2023-01-18T18:00:01.035Z,10.43
2023-01-18T18:01:13.292Z,10.28
2023-01-18T18:02:16.993Z,10.34
2023-01-18T18:03:20.133Z,10.38
2023-01-18T18:04:23.540Z,10.43
2023-01-18T18:05:26.753Z,10.46
2023-01-18T18:06:32.221Z,10.44
2023-01-18T18:07:36.387Z,10.47
2023-01-18T18:08:39.785Z,10.40
2023-01-18T18:09:46.411Z,10.35
2023-01-18T18:10:51.526Z,10.36
2023-01-18T18:11:58.340Z,10.28
2023-01-18T18:13:02.355Z,10.30
2023-01-18T18:14:07.202Z,10.34
2023-01-18T18:15:10.633Z,10.31
2023-01-18T18:16:18.259Z,10.40
2023-01-18T18:17:21.186Z,10.41
2023-01-18T18:18:26.162Z,10.30
2023-01-18T18:19:29.668Z,10.31
2023-01-18T18:20:32.845Z,10.32
2023-01-18T18:21:36.471Z,10.37
2023-01-18T18:22:39.141Z,10.23
2023-01-18T18:23:42.755Z,10.30
2023-01-18T18:24:46.372Z,10.27
2023-01-18T18:25:50.172Z,10.34
2023-01-18T18:26:55.249Z,10.45
2023-01-18T18:28:00.139Z,10.43
2023-01-18T18:29:05.791Z,10.37
2023-01-18T18:30:10.075Z,10.45
2023-01-18T18:31:16.274Z,10.41
2023-01-18T18:32:19.244Z,10.39
2023-01-18T18:33:23.691Z,10.43
2023-01-18T18:34:28.660Z,10.35
2023-01-18T18:35:32.580Z,10.34
2023-01-18T18:36:36.735Z,10.39
2023-01-18T18:37:40.323Z,10.26
2023-01-18T18:38:44.798Z,10.22
2023-01-18T18:39:48.377Z,10.25
2023-01-18T18:40:51.570Z,10.30
2023-01-18T18:41:55.110Z,10.23
2023-01-18T18:43:03.335Z,10.25
2023-01-18T18:44:08.192Z,10.10
2023-01-18T18:45:12.287Z,10.12
2023-01-18T18:46:15.870Z,10.07
2023-01-18T18:47:21.996Z,10.03
2023-01-18T18:48:29.139Z,9.93
2023-01-18T18:49:35.732Z,9.98
2023-01-18T18:50:41.494Z,9.97
2023-01-18T18:51:45.001Z,10.05
2023-01-18T18:52:48.723Z,10.04
2023-01-18T18:53:52.460Z,10.16
2023-01-18T18:54:55.987Z,10.13
2023-01-18T18:55:59.849Z,10.12
2023-01-18T18:57:02.827Z,10.35
2023-01-18T18:58:06.465Z,10.38
2023-01-18T18:59:09.632Z,10.36
2023-01-18T19:00:13.863Z,10.35
2023-01-18T19:01:19.279Z,10.29
2023-01-18T19:02:21.726Z,10.16
2023-01-18T19:03:27.516Z,10.12
2023-01-18T19:04:33.137Z,10.10
2023-01-18T19:05:37.591Z,10.09
2023-01-18T19:06:42.441Z,10.03
2023-01-18T19:07:47.704Z,9.98
2023-01-18T19:08:50.574Z,10.02
2023-01-18T19:09:54.876Z,10.03
2023-01-18T19:10:59.085Z,9.99
2023-01-18T19:12:03.704Z,9.90
2023-01-18T19:13:10.027Z,9.92
2023-01-18T19:14:14.677Z,10.01
2023-01-18T19:15:17.256Z,9.93
2023-01-18T19:16:20.545Z,9.88
2023-01-18T19:17:30.395Z,9.80
2023-01-18T19:18:29.741Z,9.84
2023-01-18T19:19:34.930Z,9.90
2023-01-18T19:20:38.330Z,9.85
2023-01-18T19:21:43.602Z,9.84
2023-01-18T19:22:50.681Z,9.86
2023-01-18T19:23:53.742Z,9.81
2023-01-18T19:24:57.038Z,9.74
2023-01-18T19:26:00.893Z,9.63
2023-01-18T19:27:04.508Z,9.74
2023-01-18T19:28:08.296Z,9.77
2023-01-18T19:29:12.634Z,9.74
2023-01-18T19:30:20.084Z,9.74
2023-01-18T19:31:23.013Z,9.63
2023-01-18T19:32:25.540Z,9.65
2023-01-18T19:33:29.477Z,9.65
2023-01-18T19:34:33.193Z,9.65
2023-01-18T19:35:40.844Z,9.75
2023-01-18T19:36:44.798Z,9.72
2023-01-18T19:37:50.089Z,9.73
2023-01-18T19:38:59.385Z,9.76
2023-01-18T19:39:57.911Z,9.78
2023-01-18T19:41:03.412Z,9.78
2023-01-18T19:42:06.619Z,9.68
2023-01-18T19:43:10.243Z,9.61
2023-01-18T19:44:15.414Z,9.67
2023-01-18T19:45:27.366Z,9.56
2023-01-18T19:46:23.557Z,9.58
2023-01-18T19:47:26.008Z,9.66
2023-01-18T19:48:32.331Z,9.68
2023-01-18T19:49:35.509Z,9.63
2023-01-18T19:50:37.787Z,9.63
2023-01-18T19:51:44.564Z,9.58
2023-01-18T19:52:49.159Z,9.53
2023-01-18T19:53:54.065Z,9.62
2023-01-18T19:54:58.746Z,9.60
2023-01-18T19:56:07.198Z,9.49
2023-01-18T19:57:08.419Z,9.44
2023-01-18T19:58:12.265Z,9.55
2023-01-18T19:59:16.904Z,9.56
2023-01-18T20:00:22.413Z,9.48
2023-01-18T20:01:35.695Z,9.42
2023-01-18T20:02:31.549Z,9.39
2023-01-18T20:03:35.356Z,9.31
2023-01-18T20:04:38.276Z,9.41
2023-01-18T20:05:45.140Z,9.30
2023-01-18T20:06:48.931Z,9.34
2023-01-18T20:07:52.463Z,9.33
2023-01-18T20:08:57.731Z,9.30
2023-01-18T20:10:00.869Z,9.34
2023-01-18T20:11:05.156Z,9.39
2023-01-18T20:12:08.261Z,9.27
2023-01-18T20:13:11.634Z,9.25
2023-01-18T20:14:14.857Z,9.35
2023-01-18T20:15:18.553Z,9.26
2023-01-18T20:16:21.715Z,9.39
2023-01-18T20:17:25.159Z,9.30
2023-01-18T20:18:33.130Z,9.37
2023-01-18T20:19:36.849Z,9.46
2023-01-18T20:20:43.688Z,9.44
2023-01-18T20:21:46.987Z,9.40
2023-01-18T20:22:49.558Z,9.33
2023-01-18T20:23:54.841Z,9.29
2023-01-18T20:24:59.200Z,9.28
2023-01-18T20:26:01.648Z,9.16
2023-01-18T20:27:15.417Z,9.01
2023-01-18T20:28:09.789Z,8.97
2023-01-18T20:29:12.657Z,8.92
2023-01-18T20:30:16.395Z,8.86
2023-01-18T20:31:19.816Z,8.85
2023-01-18T20:32:23.096Z,8.89
2023-01-18T20:33:26.542Z,8.90
2023-01-18T20:34:30.313Z,8.91
2023-01-18T20:35:32.756Z,8.92
2023-01-18T20:36:38.142Z,8.94
2023-01-18T20:37:42.089Z,8.88
2023-01-18T20:38:45.362Z,8.86
2023-01-18T20:39:49.388Z,8.85
2023-01-18T20:40:54.751Z,8.78
2023-01-18T20:41:59.077Z,8.79
2023-01-18T20:43:03.328Z,8.75
2023-01-18T20:44:07.035Z,8.76
2023-01-18T20:45:10.990Z,8.79
2023-01-18T20:46:14.380Z,8.79
2023-01-18T20:47:17.054Z,8.79
2023-01-18T20:48:20.573Z,8.70
2023-01-18T20:49:37.278Z,8.74
2023-01-18T20:50:29.868Z,8.72
2023-01-18T20:51:34.223Z,8.68
2023-01-18T20:52:37.443Z,8.67
2023-01-18T20:53:43.898Z,8.81
2023-01-18T20:54:48.041Z,8.81
2023-01-18T20:55:50.747Z,8.81
2023-01-18T20:56:54.137Z,8.67
2023-01-18T20:57:56.817Z,8.63
2023-01-18T20:59:00.114Z,8.60
2023-01-18T21:00:03.624Z,8.64
2023-01-18T21:01:07.853Z,8.66
2023-01-18T21:02:11.856Z,8.64
2023-01-18T21:03:18.107Z,8.69
2023-01-18T21:04:26.241Z,8.63
2023-01-18T21:05:30.022Z,8.58
2023-01-18T21:06:32.705Z,8.55
2023-01-18T21:07:36.865Z,8.54
2023-01-18T21:08:40.629Z,8.50
2023-01-18T21:09:43.820Z,8.50
2023-01-18T21:10:46.989Z,8.50
2023-01-18T21:11:51.258Z,8.44
2023-01-18T21:12:53.721Z,8.39
2023-01-18T21:14:00.620Z,8.35
2023-01-18T21:15:06.057Z,8.31
2023-01-18T21:16:08.834Z,8.34
2023-01-18T21:17:13.001Z,8.33
2023-01-18T21:18:16.572Z,8.27
2023-01-18T21:19:21.111Z,8.29
2023-01-18T21:20:25.420Z,8.35
2023-01-18T21:21:30.133Z,8.33
2023-01-18T21:22:34.294Z,8.32
2023-01-18T21:23:39.771Z,8.35
2023-01-18T21:24:45.252Z,8.32
2023-01-18T21:25:50.700Z,8.25
2023-01-18T21:26:54.120Z,8.37
2023-01-18T21:27:59.519Z,8.38
2023-01-18T21:29:03.319Z,8.30
2023-01-18T21:30:07.874Z,8.24
2023-01-18T21:31:11.321Z,8.24
2023-01-18T21:32:15.069Z,8.23
2023-01-18T21:33:19.118Z,8.16
2023-01-18T21:34:21.785Z,8.20
2023-01-18T21:35:24.130Z,8.19
2023-01-18T21:36:27.426Z,8.21
2023-01-18T21:37:30.513Z,8.22
2023-01-18T21:38:33.080Z,8.19
2023-01-18T21:39:35.983Z,8.16
2023-01-18T21:40:38.417Z,8.20
2023-01-18T21:42:01.247Z,8.19
2023-01-18T21:43:24.080Z,8.16
2023-01-18T21:44:45.231Z,8.16
2023-01-18T21:45:59.491Z,8.17
2023-01-18T21:47:06.373Z,8.17
2023-01-18T21:48:10.065Z,8.17
2023-01-18T21:49:19.511Z,8.07
2023-01-18T21:50:38.893Z,8.09
2023-01-18T21:51:59.528Z,8.07
2023-01-18T21:53:21.637Z,7.99
2023-01-18T21:54:25.888Z,8.01
2023-01-18T21:55:31.466Z,8.02
2023-01-18T21:56:36.882Z,8.02
2023-01-18T21:57:40.253Z,8.10
2023-01-18T21:58:55.785Z,8.13
2023-01-18T21:59:59.416Z,8.07
2023-01-18T22:01:03.915Z,8.09
2023-01-18T22:02:06.686Z,8.08
2023-01-18T22:03:11.147Z,8.06
2023-01-18T22:04:34.089Z,8.07
2023-01-18T22:05:40.810Z,8.06
2023-01-18T22:06:43.909Z,8.04
2023-01-18T22:07:47.832Z,8.03
2023-01-18T22:08:51.281Z,7.95
2023-01-18T22:10:04.032Z,7.90
2023-01-18T22:11:00.419Z,7.90
2023-01-18T22:12:04.257Z,7.87
2023-01-18T22:13:08.736Z,7.90
2023-01-18T22:14:12.116Z,7.87
2023-01-18T22:15:17.703Z,7.80
2023-01-18T22:16:20.604Z,7.83
2023-01-18T22:17:23.961Z,7.84
2023-01-18T22:18:27.321Z,7.84
2023-01-18T22:19:30.671Z,7.83
2023-01-18T22:20:33.923Z,7.80
2023-01-18T22:21:37.182Z,7.75
2023-01-18T22:22:40.876Z,7.74
2023-01-18T22:23:44.572Z,7.77
2023-01-18T22:24:47.777Z,7.73
2023-01-18T22:25:52.952Z,7.69
2023-01-18T22:27:03.579Z,7.68
2023-01-18T22:28:09.131Z,7.63
2023-01-18T22:29:13.854Z,7.56
2023-01-18T22:30:16.785Z,7.53
2023-01-18T22:31:21.766Z,7.57
2023-01-18T22:32:27.041Z,7.55
2023-01-18T22:33:32.449Z,7.50
2023-01-18T22:34:36.020Z,7.51
2023-01-18T22:35:39.749Z,7.50
2023-01-18T22:36:45.032Z,7.54
2023-01-18T22:37:48.047Z,7.56
2023-01-18T22:38:51.827Z,7.56
2023-01-18T22:39:55.351Z,7.52
2023-01-18T22:41:03.429Z,7.52
2023-01-18T22:42:07.072Z,7.48
2023-01-18T22:43:10.443Z,7.47
2023-01-18T22:44:15.607Z,7.44
2023-01-18T22:45:18.764Z,7.45
2023-01-18T22:46:25.232Z,7.56
2023-01-18T22:47:30.212Z,7.53
2023-01-18T22:48:36.686Z,7.55
2023-01-18T22:49:39.307Z,7.56
2023-01-18T22:50:43.126Z,7.48
2023-01-18T22:51:47.384Z,7.41
2023-01-18T22:52:52.976Z,7.33
2023-01-18T22:53:58.245Z,7.41
2023-01-18T22:55:02.790Z,7.51
2023-01-18T22:56:09.354Z,7.54
2023-01-18T22:57:13.053Z,7.56
2023-01-18T22:58:19.268Z,7.58
2023-01-18T22:59:23.678Z,7.59
2023-01-18T23:00:28.552Z,7.62
2023-01-18T23:01:33.003Z,7.64
2023-01-18T23:02:36.301Z,7.62
2023-01-18T23:03:38.697Z,7.64
2023-01-18T23:04:42.059Z,7.67
2023-01-18T23:05:48.278Z,7.69
2023-01-18T23:06:54.947Z,7.58
2023-01-18T23:07:59.628Z,7.48
2023-01-18T23:09:03.102Z,7.35
2023-01-18T23:10:05.634Z,7.28
2023-01-18T23:11:11.446Z,7.25
2023-01-18T23:12:16.726Z,7.21
2023-01-18T23:13:22.793Z,7.21
2023-01-18T23:14:44.737Z,7.06
2023-01-18T23:16:05.733Z,6.92
2023-01-18T23:17:28.286Z,6.82
2023-01-18T23:18:31.905Z,6.69
2023-01-18T23:19:37.594Z,6.61
2023-01-18T23:20:40.826Z,6.55
2023-01-18T23:21:43.466Z,6.54
2023-01-18T23:22:47.092Z,6.56
2023-01-18T23:23:50.368Z,6.56
2023-01-18T23:24:53.693Z,6.57
2023-01-18T23:25:59.667Z,6.58
2023-01-18T23:27:04.127Z,6.60
2023-01-18T23:28:07.420Z,6.62
2023-01-18T23:29:09.775Z,6.62
2023-01-18T23:30:14.893Z,6.64
2023-01-18T23:31:18.118Z,6.71
2023-01-18T23:32:22.187Z,6.78
2023-01-18T23:33:25.678Z,6.78
2023-01-18T23:34:30.024Z,6.80
2023-01-18T23:35:33.405Z,6.87
2023-01-18T23:36:36.681Z,6.90
2023-01-18T23:37:39.931Z,6.86
2023-01-18T23:39:00.956Z,6.86
2023-01-18T23:40:24.236Z,6.91
2023-01-18T23:41:46.089Z,6.92
2023-01-18T23:43:07.040Z,6.89
2023-01-18T23:44:29.421Z,6.89
2023-01-18T23:45:51.649Z,6.94
2023-01-18T23:47:13.527Z,6.98
2023-01-18T23:48:36.258Z,6.99
2023-01-18T23:49:56.785Z,6.99
2023-01-18T23:51:17.743Z,6.96
2023-01-18T23:52:39.313Z,6.89
2023-01-18T23:54:04.335Z,6.93
2023-01-18T23:55:08.049Z,6.97
2023-01-18T23:56:10.736Z,6.96
2023-01-18T23:57:16.248Z,7.02
2023-01-18T23:59:42.644Z,7.12
